Pine Ridge, South Dakota
Current Conditions -  °F | °C
As of 7:52 AM on Monday 22 Dec 2014 (Local Time) from KIEN Reporting Station
Few Clouds Few Clouds  
Wind Chill: 27°   Ceiling: Unl
Heat Index: 35°   Visibility: 10mi
Dew Point: 27°   Wind: 12mph
Humidity: 72%   Direction: 290°WNW
Pressure: 29.6"   Gusts: NA
Location:  43.03°N, 102.56°W
Report Text: KIEN 221452Z AUTO 29010KT 10SM FEW120 02/M03 A2960 RMK AO2 SLP040 T00171028 50006
Loading
Personal Weather Stations






























Interactive Weather Map New forecast layout! Learn more

10-Day Weather Forecast

Advertisements
Track Severe Weather on mobile